sensor_id;sensor_type;location;lat;lon;timestamp;temperature;humidity
23755;DHT22;12057;52.042;6.830;2023-07-31T00:02:52;18.60;99.90
23755;DHT22;12057;52.042;6.830;2023-07-31T00:07:53;18.60;99.90
23755;DHT22;12057;52.042;6.830;2023-07-31T00:12:55;18.40;99.90
23755;DHT22;12057;52.042;6.830;2023-07-31T00:17:56;18.40;99.90
23755;DHT22;12057;52.042;6.830;2023-07-31T00:22:56;18.50;99.90
23755;DHT22;12057;52.042;6.830;2023-07-31T00:27:57;18.30;99.90
23755;DHT22;12057;52.042;6.830;2023-07-31T00:32:58;18.30;99.90
23755;DHT22;12057;52.042;6.830;2023-07-31T00:37:59;18.50;99.90
23755;DHT22;12057;52.042;6.830;2023-07-31T00:42:59;18.40;99.90
23755;DHT22;12057;52.042;6.830;2023-07-31T00:48:01;18.50;99.90
23755;DHT22;12057;52.042;6.830;2023-07-31T00:53:02;18.60;99.90
23755;DHT22;12057;52.042;6.830;2023-07-31T00:58:03;18.40;99.90
23755;DHT22;12057;52.042;6.830;2023-07-31T01:03:04;18.50;99.90
23755;DHT22;12057;52.042;6.830;2023-07-31T01:08:33;18.60;99.90
23755;DHT22;12057;52.042;6.830;2023-07-31T01:13:32;18.70;99.90
23755;DHT22;12057;52.042;6.830;2023-07-31T01:18:33;18.40;99.90
23755;DHT22;12057;52.042;6.830;2023-07-31T01:24:02;18.40;99.90
23755;DHT22;12057;52.042;6.830;2023-07-31T01:29:23;18.30;99.90
23755;DHT22;12057;52.042;6.830;2023-07-31T01:34:24;18.40;99.90
23755;DHT22;12057;52.042;6.830;2023-07-31T01:39:26;18.50;99.90
23755;DHT22;12057;52.042;6.830;2023-07-31T01:44:27;18.50;99.90
23755;DHT22;12057;52.042;6.830;2023-07-31T01:49:28;18.50;99.90
23755;DHT22;12057;52.042;6.830;2023-07-31T01:54:29;18.40;99.90
23755;DHT22;12057;52.042;6.830;2023-07-31T01:59:30;18.50;99.90
23755;DHT22;12057;52.042;6.830;2023-07-31T02:04:30;18.40;99.90
23755;DHT22;12057;52.042;6.830;2023-07-31T02:09:31;18.40;99.90
23755;DHT22;12057;52.042;6.830;2023-07-31T02:14:32;18.40;99.90
23755;DHT22;12057;52.042;6.830;2023-07-31T02:19:33;18.30;99.90
23755;DHT22;12057;52.042;6.830;2023-07-31T02:24:37;18.30;99.90
23755;DHT22;12057;52.042;6.830;2023-07-31T02:29:37;18.20;99.90
23755;DHT22;12057;52.042;6.830;2023-07-31T02:34:38;18.20;99.90
23755;DHT22;12057;52.042;6.830;2023-07-31T02:39:39;18.60;99.90
23755;DHT22;12057;52.042;6.830;2023-07-31T02:44:40;18.50;99.90
23755;DHT22;12057;52.042;6.830;2023-07-31T02:49:41;18.60;99.90
23755;DHT22;12057;52.042;6.830;2023-07-31T02:54:41;18.60;99.90
23755;DHT22;12057;52.042;6.830;2023-07-31T02:59:42;18.70;99.90
23755;DHT22;12057;52.042;6.830;2023-07-31T03:04:43;18.70;99.90
23755;DHT22;12057;52.042;6.830;2023-07-31T03:09:44;18.60;99.90
23755;DHT22;12057;52.042;6.830;2023-07-31T03:14:44;18.50;99.90
23755;DHT22;12057;52.042;6.830;2023-07-31T03:19:45;18.70;99.90
23755;DHT22;12057;52.042;6.830;2023-07-31T03:24:46;18.40;99.90
23755;DHT22;12057;52.042;6.830;2023-07-31T03:29:47;18.40;99.90
23755;DHT22;12057;52.042;6.830;2023-07-31T03:34:50;18.40;99.90
23755;DHT22;12057;52.042;6.830;2023-07-31T03:39:51;18.60;99.90
23755;DHT22;12057;52.042;6.830;2023-07-31T03:44:51;18.60;99.90
23755;DHT22;12057;52.042;6.830;2023-07-31T03:49:52;18.70;99.90
23755;DHT22;12057;52.042;6.830;2023-07-31T03:54:53;18.40;99.90
23755;DHT22;12057;52.042;6.830;2023-07-31T03:59:57;18.40;99.90
23755;DHT22;12057;52.042;6.830;2023-07-31T04:04:58;18.40;99.90
23755;DHT22;12057;52.042;6.830;2023-07-31T04:09:59;18.40;99.90
23755;DHT22;12057;52.042;6.830;2023-07-31T04:15:00;18.40;99.90
23755;DHT22;12057;52.042;6.830;2023-07-31T04:20:01;18.40;99.90
23755;DHT22;12057;52.042;6.830;2023-07-31T04:25:02;18.50;99.90
23755;DHT22;12057;52.042;6.830;2023-07-31T04:30:04;18.30;99.90
23755;DHT22;12057;52.042;6.830;2023-07-31T04:35:05;18.60;99.90
23755;DHT22;12057;52.042;6.830;2023-07-31T04:40:06;18.70;99.90
23755;DHT22;12057;52.042;6.830;2023-07-31T04:45:09;18.50;99.90
23755;DHT22;12057;52.042;6.830;2023-07-31T04:50:10;18.60;99.90
23755;DHT22;12057;52.042;6.830;2023-07-31T04:55:11;18.70;99.90
23755;DHT22;12057;52.042;6.830;2023-07-31T05:00:11;18.60;99.90
23755;DHT22;12057;52.042;6.830;2023-07-31T05:05:12;18.70;99.90
23755;DHT22;12057;52.042;6.830;2023-07-31T05:10:13;18.60;99.90
23755;DHT22;12057;52.042;6.830;2023-07-31T05:15:14;18.70;99.90
23755;DHT22;12057;52.042;6.830;2023-07-31T05:20:15;18.70;99.90
23755;DHT22;12057;52.042;6.830;2023-07-31T05:25:16;18.60;99.90
23755;DHT22;12057;52.042;6.830;2023-07-31T05:30:17;18.50;99.90
23755;DHT22;12057;52.042;6.830;2023-07-31T05:35:17;18.50;99.90
23755;DHT22;12057;52.042;6.830;2023-07-31T05:40:18;18.70;99.90
23755;DHT22;12057;52.042;6.830;2023-07-31T05:45:19;18.90;99.90
23755;DHT22;12057;52.042;6.830;2023-07-31T05:50:20;18.80;99.90
23755;DHT22;12057;52.042;6.830;2023-07-31T05:55:20;18.80;99.90
23755;DHT22;12057;52.042;6.830;2023-07-31T06:00:21;18.70;99.90
23755;DHT22;12057;52.042;6.830;2023-07-31T06:05:23;18.80;99.90
23755;DHT22;12057;52.042;6.830;2023-07-31T06:10:23;19.00;99.90
23755;DHT22;12057;52.042;6.830;2023-07-31T06:15:24;18.90;99.90
23755;DHT22;12057;52.042;6.830;2023-07-31T06:20:25;19.10;99.90
23755;DHT22;12057;52.042;6.830;2023-07-31T06:25:29;19.10;99.90
23755;DHT22;12057;52.042;6.830;2023-07-31T06:30:31;19.10;99.90
23755;DHT22;12057;52.042;6.830;2023-07-31T06:35:31;19.00;99.90
23755;DHT22;12057;52.042;6.830;2023-07-31T06:40:32;18.90;99.90
23755;DHT22;12057;52.042;6.830;2023-07-31T06:45:36;19.10;99.90
23755;DHT22;12057;52.042;6.830;2023-07-31T06:50:38;19.00;99.90
23755;DHT22;12057;52.042;6.830;2023-07-31T06:55:39;19.00;99.90
23755;DHT22;12057;52.042;6.830;2023-07-31T07:00:40;19.30;99.90
23755;DHT22;12057;52.042;6.830;2023-07-31T07:05:41;19.30;99.90
23755;DHT22;12057;52.042;6.830;2023-07-31T07:10:42;19.30;99.90
23755;DHT22;12057;52.042;6.830;2023-07-31T07:15:43;18.70;99.90
23755;DHT22;12057;52.042;6.830;2023-07-31T07:20:49;18.90;99.90
23755;DHT22;12057;52.042;6.830;2023-07-31T07:25:50;19.00;99.90
23755;DHT22;12057;52.042;6.830;2023-07-31T07:30:52;19.10;99.90
23755;DHT22;12057;52.042;6.830;2023-07-31T07:35:54;19.40;99.90
23755;DHT22;12057;52.042;6.830;2023-07-31T07:40:54;19.30;99.90
23755;DHT22;12057;52.042;6.830;2023-07-31T07:45:55;19.40;99.90
23755;DHT22;12057;52.042;6.830;2023-07-31T07:50:56;19.30;99.90
23755;DHT22;12057;52.042;6.830;2023-07-31T07:55:56;19.60;99.90
23755;DHT22;12057;52.042;6.830;2023-07-31T08:00:58;19.60;99.90
23755;DHT22;12057;52.042;6.830;2023-07-31T08:05:59;19.70;99.90
23755;DHT22;12057;52.042;6.830;2023-07-31T08:11:00;19.80;99.90
23755;DHT22;12057;52.042;6.830;2023-07-31T08:16:01;19.80;99.90
23755;DHT22;12057;52.042;6.830;2023-07-31T08:21:02;19.90;99.90
23755;DHT22;12057;52.042;6.830;2023-07-31T08:26:03;19.70;99.90
23755;DHT22;12057;52.042;6.830;2023-07-31T08:31:07;19.90;99.90
23755;DHT22;12057;52.042;6.830;2023-07-31T08:36:08;19.80;99.90
23755;DHT22;12057;52.042;6.830;2023-07-31T08:41:08;19.80;99.90
23755;DHT22;12057;52.042;6.830;2023-07-31T08:46:10;19.70;99.90
23755;DHT22;12057;52.042;6.830;2023-07-31T08:51:11;19.80;99.90
23755;DHT22;12057;52.042;6.830;2023-07-31T08:56:13;19.60;99.90
23755;DHT22;12057;52.042;6.830;2023-07-31T09:01:15;19.60;99.90
23755;DHT22;12057;52.042;6.830;2023-07-31T09:06:18;19.70;99.90
23755;DHT22;12057;52.042;6.830;2023-07-31T09:11:19;19.80;99.90
23755;DHT22;12057;52.042;6.830;2023-07-31T09:16:27;19.90;99.90
23755;DHT22;12057;52.042;6.830;2023-07-31T09:21:30;19.70;99.90
23755;DHT22;12057;52.042;6.830;2023-07-31T09:26:36;20.20;99.90
23755;DHT22;12057;52.042;6.830;2023-07-31T09:31:41;20.00;99.90
23755;DHT22;12057;52.042;6.830;2023-07-31T09:36:44;19.80;99.90
23755;DHT22;12057;52.042;6.830;2023-07-31T09:41:48;20.10;99.90
23755;DHT22;12057;52.042;6.830;2023-07-31T09:46:56;20.00;99.90
23755;DHT22;12057;52.042;6.830;2023-07-31T09:51:57;20.00;99.90
23755;DHT22;12057;52.042;6.830;2023-07-31T09:56:59;20.00;99.90
23755;DHT22;12057;52.042;6.830;2023-07-31T10:02:00;20.00;99.90
23755;DHT22;12057;52.042;6.830;2023-07-31T10:07:03;20.00;99.90
23755;DHT22;12057;52.042;6.830;2023-07-31T10:12:08;19.90;99.90
23755;DHT22;12057;52.042;6.830;2023-07-31T10:17:10;19.90;99.90
23755;DHT22;12057;52.042;6.830;2023-07-31T10:22:12;19.80;99.90
23755;DHT22;12057;52.042;6.830;2023-07-31T10:27:13;20.30;99.90
23755;DHT22;12057;52.042;6.830;2023-07-31T10:32:15;20.30;99.90
23755;DHT22;12057;52.042;6.830;2023-07-31T10:42:30;19.90;99.90
23755;DHT22;12057;52.042;6.830;2023-07-31T10:47:36;19.80;99.90
23755;DHT22;12057;52.042;6.830;2023-07-31T10:52:37;19.90;99.90
23755;DHT22;12057;52.042;6.830;2023-07-31T10:57:37;20.10;99.90
23755;DHT22;12057;52.042;6.830;2023-07-31T11:02:38;20.30;99.90
23755;DHT22;12057;52.042;6.830;2023-07-31T11:07:49;20.10;99.90
23755;DHT22;12057;52.042;6.830;2023-07-31T11:12:49;19.90;99.90
23755;DHT22;12057;52.042;6.830;2023-07-31T11:17:50;19.70;99.90
23755;DHT22;12057;52.042;6.830;2023-07-31T11:22:51;19.90;99.90
23755;DHT22;12057;52.042;6.830;2023-07-31T11:27:52;20.10;99.90
23755;DHT22;12057;52.042;6.830;2023-07-31T11:32:55;20.20;99.90
23755;DHT22;12057;52.042;6.830;2023-07-31T11:37:56;20.50;99.90
23755;DHT22;12057;52.042;6.830;2023-07-31T11:42:58;20.70;99.90
23755;DHT22;12057;52.042;6.830;2023-07-31T11:48:04;20.80;99.90
23755;DHT22;12057;52.042;6.830;2023-07-31T11:53:08;20.90;99.90
23755;DHT22;12057;52.042;6.830;2023-07-31T11:58:09;21.00;99.90
23755;DHT22;12057;52.042;6.830;2023-07-31T12:03:13;20.70;99.90
23755;DHT22;12057;52.042;6.830;2023-07-31T12:08:15;21.10;99.90
23755;DHT22;12057;52.042;6.830;2023-07-31T12:13:26;20.80;99.90
23755;DHT22;12057;52.042;6.830;2023-07-31T12:18:28;20.70;99.90
23755;DHT22;12057;52.042;6.830;2023-07-31T12:23:31;20.70;99.90
23755;DHT22;12057;52.042;6.830;2023-07-31T12:28:43;20.90;99.90
23755;DHT22;12057;52.042;6.830;2023-07-31T12:33:49;20.80;99.90
23755;DHT22;12057;52.042;6.830;2023-07-31T12:38:51;20.50;99.90
23755;DHT22;12057;52.042;6.830;2023-07-31T12:43:52;20.50;99.90
23755;DHT22;12057;52.042;6.830;2023-07-31T12:48:53;21.20;99.90
23755;DHT22;12057;52.042;6.830;2023-07-31T12:53:53;21.40;99.90
23755;DHT22;12057;52.042;6.830;2023-07-31T12:58:54;21.60;99.90
23755;DHT22;12057;52.042;6.830;2023-07-31T13:03:55;21.70;99.90
23755;DHT22;12057;52.042;6.830;2023-07-31T13:08:56;21.50;99.90
23755;DHT22;12057;52.042;6.830;2023-07-31T13:13:56;21.20;99.90
23755;DHT22;12057;52.042;6.830;2023-07-31T13:18:57;21.50;99.90
23755;DHT22;12057;52.042;6.830;2023-07-31T13:23:58;21.60;99.90
23755;DHT22;12057;52.042;6.830;2023-07-31T13:29:01;21.40;99.90
23755;DHT22;12057;52.042;6.830;2023-07-31T13:34:02;21.70;99.90
23755;DHT22;12057;52.042;6.830;2023-07-31T13:39:03;21.70;99.90
23755;DHT22;12057;52.042;6.830;2023-07-31T13:44:04;21.70;99.90
23755;DHT22;12057;52.042;6.830;2023-07-31T13:49:05;21.30;99.90
23755;DHT22;12057;52.042;6.830;2023-07-31T13:54:05;21.30;99.90
23755;DHT22;12057;52.042;6.830;2023-07-31T13:59:09;21.40;99.90
23755;DHT22;12057;52.042;6.830;2023-07-31T14:04:10;21.50;99.90
23755;DHT22;12057;52.042;6.830;2023-07-31T14:09:11;21.50;99.90
23755;DHT22;12057;52.042;6.830;2023-07-31T14:14:17;21.40;99.90
23755;DHT22;12057;52.042;6.830;2023-07-31T14:19:20;21.60;99.90
23755;DHT22;12057;52.042;6.830;2023-07-31T14:24:21;21.40;99.90
23755;DHT22;12057;52.042;6.830;2023-07-31T14:29:22;21.70;99.90
23755;DHT22;12057;52.042;6.830;2023-07-31T14:34:24;21.60;99.90
23755;DHT22;12057;52.042;6.830;2023-07-31T14:39:28;21.70;99.90
23755;DHT22;12057;52.042;6.830;2023-07-31T14:44:29;21.60;99.90
23755;DHT22;12057;52.042;6.830;2023-07-31T14:49:30;21.80;99.90
23755;DHT22;12057;52.042;6.830;2023-07-31T14:54:30;21.70;99.90
23755;DHT22;12057;52.042;6.830;2023-07-31T14:59:31;21.70;99.90
23755;DHT22;12057;52.042;6.830;2023-07-31T15:04:32;21.50;99.90
23755;DHT22;12057;52.042;6.830;2023-07-31T15:09:33;21.60;99.90
23755;DHT22;12057;52.042;6.830;2023-07-31T15:14:34;21.50;99.90
23755;DHT22;12057;52.042;6.830;2023-07-31T15:19:35;21.30;99.90
23755;DHT22;12057;52.042;6.830;2023-07-31T15:24:37;21.40;99.90
23755;DHT22;12057;52.042;6.830;2023-07-31T15:29:37;20.90;99.90
23755;DHT22;12057;52.042;6.830;2023-07-31T15:34:38;21.00;99.90
23755;DHT22;12057;52.042;6.830;2023-07-31T15:39:39;21.10;99.90
23755;DHT22;12057;52.042;6.830;2023-07-31T15:44:40;20.90;99.90
23755;DHT22;12057;52.042;6.830;2023-07-31T15:49:40;20.80;99.90
23755;DHT22;12057;52.042;6.830;2023-07-31T15:54:44;20.90;99.90
23755;DHT22;12057;52.042;6.830;2023-07-31T15:59:45;21.00;99.90
23755;DHT22;12057;52.042;6.830;2023-07-31T16:04:46;21.00;99.90
23755;DHT22;12057;52.042;6.830;2023-07-31T16:09:47;21.00;99.90
23755;DHT22;12057;52.042;6.830;2023-07-31T16:14:47;20.60;99.90
23755;DHT22;12057;52.042;6.830;2023-07-31T16:19:48;20.70;99.90
23755;DHT22;12057;52.042;6.830;2023-07-31T16:24:49;20.70;99.90
23755;DHT22;12057;52.042;6.830;2023-07-31T16:29:50;20.90;99.90
23755;DHT22;12057;52.042;6.830;2023-07-31T16:34:51;20.80;99.90
23755;DHT22;12057;52.042;6.830;2023-07-31T16:39:54;20.40;99.90
23755;DHT22;12057;52.042;6.830;2023-07-31T16:44:55;20.10;99.90
23755;DHT22;12057;52.042;6.830;2023-07-31T16:49:56;20.10;99.90
23755;DHT22;12057;52.042;6.830;2023-07-31T16:54:57;20.50;99.90
23755;DHT22;12057;52.042;6.830;2023-07-31T16:59:58;20.50;99.90
23755;DHT22;12057;52.042;6.830;2023-07-31T17:04:59;20.80;99.90
23755;DHT22;12057;52.042;6.830;2023-07-31T17:09:59;20.50;99.90
23755;DHT22;12057;52.042;6.830;2023-07-31T17:15:00;20.50;99.90
23755;DHT22;12057;52.042;6.830;2023-07-31T17:20:01;20.50;99.90
23755;DHT22;12057;52.042;6.830;2023-07-31T17:25:03;20.40;99.90
23755;DHT22;12057;52.042;6.830;2023-07-31T17:30:05;20.30;99.90
23755;DHT22;12057;52.042;6.830;2023-07-31T17:35:06;20.20;99.90
23755;DHT22;12057;52.042;6.830;2023-07-31T17:40:08;20.10;99.90
23755;DHT22;12057;52.042;6.830;2023-07-31T17:45:09;19.90;99.90
23755;DHT22;12057;52.042;6.830;2023-07-31T17:50:10;20.30;99.90
23755;DHT22;12057;52.042;6.830;2023-07-31T17:55:11;20.10;99.90
23755;DHT22;12057;52.042;6.830;2023-07-31T18:00:12;20.20;99.90
23755;DHT22;12057;52.042;6.830;2023-07-31T18:05:13;20.10;99.90
23755;DHT22;12057;52.042;6.830;2023-07-31T18:10:14;20.10;99.90
23755;DHT22;12057;52.042;6.830;2023-07-31T18:15:14;20.10;99.90
23755;DHT22;12057;52.042;6.830;2023-07-31T18:20:15;20.00;99.90
23755;DHT22;12057;52.042;6.830;2023-07-31T18:25:16;20.00;99.90
23755;DHT22;12057;52.042;6.830;2023-07-31T18:30:17;19.90;99.90
23755;DHT22;12057;52.042;6.830;2023-07-31T18:35:18;20.00;99.90
23755;DHT22;12057;52.042;6.830;2023-07-31T18:40:19;19.80;99.90
23755;DHT22;12057;52.042;6.830;2023-07-31T18:45:20;19.90;99.90
23755;DHT22;12057;52.042;6.830;2023-07-31T18:50:21;19.90;99.90
23755;DHT22;12057;52.042;6.830;2023-07-31T18:55:22;20.10;99.90
23755;DHT22;12057;52.042;6.830;2023-07-31T19:00:23;20.20;99.90
23755;DHT22;12057;52.042;6.830;2023-07-31T19:05:24;20.10;99.90
23755;DHT22;12057;52.042;6.830;2023-07-31T19:10:25;19.90;99.90
23755;DHT22;12057;52.042;6.830;2023-07-31T19:15:26;19.90;99.90
23755;DHT22;12057;52.042;6.830;2023-07-31T19:20:26;20.20;99.90
23755;DHT22;12057;52.042;6.830;2023-07-31T19:25:27;20.10;99.90
23755;DHT22;12057;52.042;6.830;2023-07-31T19:30:28;20.00;99.90
23755;DHT22;12057;52.042;6.830;2023-07-31T19:35:29;19.90;99.90
23755;DHT22;12057;52.042;6.830;2023-07-31T19:40:30;20.10;99.90
23755;DHT22;12057;52.042;6.830;2023-07-31T19:45:30;20.20;99.90
23755;DHT22;12057;52.042;6.830;2023-07-31T19:50:32;19.90;99.90
23755;DHT22;12057;52.042;6.830;2023-07-31T19:55:33;19.80;99.90
23755;DHT22;12057;52.042;6.830;2023-07-31T20:00:33;19.80;99.90
23755;DHT22;12057;52.042;6.830;2023-07-31T20:05:34;19.90;99.90
23755;DHT22;12057;52.042;6.830;2023-07-31T20:10:37;20.10;99.90
23755;DHT22;12057;52.042;6.830;2023-07-31T20:15:38;20.10;99.90
23755;DHT22;12057;52.042;6.830;2023-07-31T20:20:39;20.20;99.90
23755;DHT22;12057;52.042;6.830;2023-07-31T20:25:39;20.10;99.90
23755;DHT22;12057;52.042;6.830;2023-07-31T20:30:40;19.90;99.90
23755;DHT22;12057;52.042;6.830;2023-07-31T20:35:41;20.10;99.90
23755;DHT22;12057;52.042;6.830;2023-07-31T20:40:42;20.10;99.90
23755;DHT22;12057;52.042;6.830;2023-07-31T20:45:43;19.90;99.90
23755;DHT22;12057;52.042;6.830;2023-07-31T20:50:43;19.90;99.90
23755;DHT22;12057;52.042;6.830;2023-07-31T20:55:44;19.80;99.90
23755;DHT22;12057;52.042;6.830;2023-07-31T21:00:45;19.80;99.90
23755;DHT22;12057;52.042;6.830;2023-07-31T21:05:50;19.80;99.90
23755;DHT22;12057;52.042;6.830;2023-07-31T21:10:51;19.60;99.90
23755;DHT22;12057;52.042;6.830;2023-07-31T21:15:57;19.70;99.90
23755;DHT22;12057;52.042;6.830;2023-07-31T21:20:58;19.70;99.90
23755;DHT22;12057;52.042;6.830;2023-07-31T21:25:58;19.60;99.90
23755;DHT22;12057;52.042;6.830;2023-07-31T21:31:11;19.60;99.90
23755;DHT22;12057;52.042;6.830;2023-07-31T21:36:12;19.70;99.90
23755;DHT22;12057;52.042;6.830;2023-07-31T21:41:12;19.70;99.90
23755;DHT22;12057;52.042;6.830;2023-07-31T21:46:13;19.80;99.90
23755;DHT22;12057;52.042;6.830;2023-07-31T21:51:14;19.70;99.90
23755;DHT22;12057;52.042;6.830;2023-07-31T21:56:15;19.60;99.90
23755;DHT22;12057;52.042;6.830;2023-07-31T22:01:16;19.60;99.90
23755;DHT22;12057;52.042;6.830;2023-07-31T22:06:17;19.60;99.90
23755;DHT22;12057;52.042;6.830;2023-07-31T22:11:18;19.60;99.90
23755;DHT22;12057;52.042;6.830;2023-07-31T22:16:21;19.60;99.90
23755;DHT22;12057;52.042;6.830;2023-07-31T22:21:22;19.70;99.90
23755;DHT22;12057;52.042;6.830;2023-07-31T22:26:22;19.60;99.90
23755;DHT22;12057;52.042;6.830;2023-07-31T22:31:23;19.60;99.90
23755;DHT22;12057;52.042;6.830;2023-07-31T22:36:24;19.80;99.90
23755;DHT22;12057;52.042;6.830;2023-07-31T22:41:25;19.70;99.90
23755;DHT22;12057;52.042;6.830;2023-07-31T22:46:25;19.60;99.90
23755;DHT22;12057;52.042;6.830;2023-07-31T22:51:26;19.60;99.90
23755;DHT22;12057;52.042;6.830;2023-07-31T22:56:27;19.60;99.90
23755;DHT22;12057;52.042;6.830;2023-07-31T23:01:28;19.70;99.90
23755;DHT22;12057;52.042;6.830;2023-07-31T23:06:28;19.70;99.90
23755;DHT22;12057;52.042;6.830;2023-07-31T23:11:32;19.60;99.90
23755;DHT22;12057;52.042;6.830;2023-07-31T23:16:33;19.50;99.90
23755;DHT22;12057;52.042;6.830;2023-07-31T23:21:34;19.30;99.90
23755;DHT22;12057;52.042;6.830;2023-07-31T23:26:34;19.40;99.90
23755;DHT22;12057;52.042;6.830;2023-07-31T23:31:35;19.40;99.90
23755;DHT22;12057;52.042;6.830;2023-07-31T23:36:36;19.60;99.90
23755;DHT22;12057;52.042;6.830;2023-07-31T23:41:37;19.70;99.90
23755;DHT22;12057;52.042;6.830;2023-07-31T23:46:38;19.60;99.90
23755;DHT22;12057;52.042;6.830;2023-07-31T23:51:46;19.70;99.90
23755;DHT22;12057;52.042;6.830;2023-07-31T23:56:47;19.70;99.90
